sensor_id;sensor_type;location;lat;lon;timestamp;P1;durP1;ratioP1;P2;durP2;ratioP2
15258;SDS011;34462;51.368;12.364;2023-01-28T00:02:07;3.83;;;3.17;;
15258;SDS011;34462;51.368;12.364;2023-01-28T00:04:38;5.80;;;3.03;;
15258;SDS011;34462;51.368;12.364;2023-01-28T00:07:07;4.83;;;2.80;;
15258;SDS011;34462;51.368;12.364;2023-01-28T00:09:35;2.73;;;2.53;;
15258;SDS011;34462;51.368;12.364;2023-01-28T00:12:04;3.93;;;3.00;;
15258;SDS011;34462;51.368;12.364;2023-01-28T00:14:33;7.50;;;3.00;;
15258;SDS011;34462;51.368;12.364;2023-01-28T00:17:03;3.20;;;2.67;;
15258;SDS011;34462;51.368;12.364;2023-01-28T00:19:32;5.83;;;2.73;;
15258;SDS011;34462;51.368;12.364;2023-01-28T00:22:01;6.33;;;2.80;;
15258;SDS011;34462;51.368;12.364;2023-01-28T00:24:29;4.47;;;2.77;;
15258;SDS011;34462;51.368;12.364;2023-01-28T00:26:57;3.40;;;2.47;;
15258;SDS011;34462;51.368;12.364;2023-01-28T00:29:25;5.83;;;2.93;;
15258;SDS011;34462;51.368;12.364;2023-01-28T00:31:54;3.83;;;2.60;;
15258;SDS011;34462;51.368;12.364;2023-01-28T00:34:22;3.93;;;2.70;;
15258;SDS011;34462;51.368;12.364;2023-01-28T00:36:51;3.10;;;2.20;;
15258;SDS011;34462;51.368;12.364;2023-01-28T00:39:23;4.30;;;2.20;;
15258;SDS011;34462;51.368;12.364;2023-01-28T00:41:53;3.17;;;2.23;;
15258;SDS011;34462;51.368;12.364;2023-01-28T00:44:21;4.37;;;2.43;;
15258;SDS011;34462;51.368;12.364;2023-01-28T00:46:49;3.17;;;1.90;;
15258;SDS011;34462;51.368;12.364;2023-01-28T00:49:17;3.90;;;2.30;;
15258;SDS011;34462;51.368;12.364;2023-01-28T00:51:45;3.37;;;2.20;;
15258;SDS011;34462;51.368;12.364;2023-01-28T00:54:16;3.27;;;2.40;;
15258;SDS011;34462;51.368;12.364;2023-01-28T00:56:44;5.43;;;2.43;;
15258;SDS011;34462;51.368;12.364;2023-01-28T00:59:12;3.10;;;2.10;;
15258;SDS011;34462;51.368;12.364;2023-01-28T01:01:41;4.10;;;2.47;;
15258;SDS011;34462;51.368;12.364;2023-01-28T01:04:09;3.73;;;2.17;;
15258;SDS011;34462;51.368;12.364;2023-01-28T01:06:38;4.10;;;2.40;;
15258;SDS011;34462;51.368;12.364;2023-01-28T01:09:09;4.70;;;2.37;;
15258;SDS011;34462;51.368;12.364;2023-01-28T01:11:39;3.57;;;2.60;;
15258;SDS011;34462;51.368;12.364;2023-01-28T01:14:08;4.50;;;2.27;;
15258;SDS011;34462;51.368;12.364;2023-01-28T01:16:37;3.67;;;2.13;;
15258;SDS011;34462;51.368;12.364;2023-01-28T01:19:06;3.67;;;2.73;;
15258;SDS011;34462;51.368;12.364;2023-01-28T01:21:35;4.00;;;2.50;;
15258;SDS011;34462;51.368;12.364;2023-01-28T01:24:03;4.07;;;2.30;;
15258;SDS011;34462;51.368;12.364;2023-01-28T01:26:32;4.83;;;2.63;;
15258;SDS011;34462;51.368;12.364;2023-01-28T01:29:01;3.23;;;2.17;;
15258;SDS011;34462;51.368;12.364;2023-01-28T01:31:30;5.13;;;2.63;;
15258;SDS011;34462;51.368;12.364;2023-01-28T01:33:58;3.20;;;2.47;;
15258;SDS011;34462;51.368;12.364;2023-01-28T01:36:26;4.50;;;2.80;;
15258;SDS011;34462;51.368;12.364;2023-01-28T01:38:54;5.40;;;3.07;;
15258;SDS011;34462;51.368;12.364;2023-01-28T01:41:24;3.47;;;2.53;;
15258;SDS011;34462;51.368;12.364;2023-01-28T01:43:55;4.77;;;2.67;;
15258;SDS011;34462;51.368;12.364;2023-01-28T01:46:33;5.07;;;2.83;;
15258;SDS011;34462;51.368;12.364;2023-01-28T01:49:07;4.53;;;2.63;;
15258;SDS011;34462;51.368;12.364;2023-01-28T01:51:45;3.37;;;2.50;;
15258;SDS011;34462;51.368;12.364;2023-01-28T01:54:19;4.37;;;2.80;;
15258;SDS011;34462;51.368;12.364;2023-01-28T01:56:54;3.00;;;2.53;;
15258;SDS011;34462;51.368;12.364;2023-01-28T01:59:24;5.60;;;2.67;;
15258;SDS011;34462;51.368;12.364;2023-01-28T02:02:00;5.60;;;2.87;;
15258;SDS011;34462;51.368;12.364;2023-01-28T02:04:34;3.80;;;2.60;;
15258;SDS011;34462;51.368;12.364;2023-01-28T02:07:07;5.67;;;2.50;;
15258;SDS011;34462;51.368;12.364;2023-01-28T02:09:38;4.77;;;3.10;;
15258;SDS011;34462;51.368;12.364;2023-01-28T02:12:07;3.80;;;2.60;;
15258;SDS011;34462;51.368;12.364;2023-01-28T02:14:45;4.00;;;2.90;;
15258;SDS011;34462;51.368;12.364;2023-01-28T02:17:20;4.53;;;2.80;;
15258;SDS011;34462;51.368;12.364;2023-01-28T02:19:49;5.63;;;2.80;;
15258;SDS011;34462;51.368;12.364;2023-01-28T02:22:37;4.30;;;2.60;;
15258;SDS011;34462;51.368;12.364;2023-01-28T02:28:49;6.70;;;3.13;;
15258;SDS011;34462;51.368;12.364;2023-01-28T02:31:26;5.70;;;2.93;;
15258;SDS011;34462;51.368;12.364;2023-01-28T02:34:01;4.40;;;2.50;;
15258;SDS011;34462;51.368;12.364;2023-01-28T02:36:40;3.97;;;2.63;;
15258;SDS011;34462;51.368;12.364;2023-01-28T02:39:15;3.67;;;2.73;;
15258;SDS011;34462;51.368;12.364;2023-01-28T02:41:52;3.17;;;2.30;;
15258;SDS011;34462;51.368;12.364;2023-01-28T02:44:29;3.70;;;2.83;;
15258;SDS011;34462;51.368;12.364;2023-01-28T02:46:57;5.70;;;2.90;;
15258;SDS011;34462;51.368;12.364;2023-01-28T02:49:44;5.40;;;3.00;;
15258;SDS011;34462;51.368;12.364;2023-01-28T02:52:24;3.90;;;2.50;;
15258;SDS011;34462;51.368;12.364;2023-01-28T02:55:25;4.27;;;2.80;;
15258;SDS011;34462;51.368;12.364;2023-01-28T02:58:06;4.53;;;2.73;;
15258;SDS011;34462;51.368;12.364;2023-01-28T03:00:48;4.23;;;2.73;;
15258;SDS011;34462;51.368;12.364;2023-01-28T03:03:27;4.03;;;2.80;;
15258;SDS011;34462;51.368;12.364;2023-01-28T03:06:02;3.63;;;2.77;;
15258;SDS011;34462;51.368;12.364;2023-01-28T03:08:37;3.93;;;2.90;;
15258;SDS011;34462;51.368;12.364;2023-01-28T03:11:31;4.23;;;3.07;;
15258;SDS011;34462;51.368;12.364;2023-01-28T03:14:24;4.27;;;3.00;;
15258;SDS011;34462;51.368;12.364;2023-01-28T03:17:14;5.20;;;2.87;;
15258;SDS011;34462;51.368;12.364;2023-01-28T03:20:04;4.27;;;2.53;;
15258;SDS011;34462;51.368;12.364;2023-01-28T03:22:52;5.17;;;3.10;;
15258;SDS011;34462;51.368;12.364;2023-01-28T03:25:43;6.83;;;3.13;;
15258;SDS011;34462;51.368;12.364;2023-01-28T03:28:33;4.77;;;3.07;;
15258;SDS011;34462;51.368;12.364;2023-01-28T03:31:22;4.63;;;2.60;;
15258;SDS011;34462;51.368;12.364;2023-01-28T03:34:11;3.97;;;3.00;;
15258;SDS011;34462;51.368;12.364;2023-01-28T03:36:58;4.30;;;3.27;;
15258;SDS011;34462;51.368;12.364;2023-01-28T03:39:27;3.80;;;2.67;;
15258;SDS011;34462;51.368;12.364;2023-01-28T03:41:57;6.47;;;2.80;;
15258;SDS011;34462;51.368;12.364;2023-01-28T03:44:28;3.87;;;2.50;;
15258;SDS011;34462;51.368;12.364;2023-01-28T03:47:17;3.60;;;2.70;;
15258;SDS011;34462;51.368;12.364;2023-01-28T03:49:47;4.37;;;2.80;;
15258;SDS011;34462;51.368;12.364;2023-01-28T03:52:18;4.53;;;2.70;;
15258;SDS011;34462;51.368;12.364;2023-01-28T03:54:49;5.03;;;2.53;;
15258;SDS011;34462;51.368;12.364;2023-01-28T03:57:18;5.13;;;2.43;;
15258;SDS011;34462;51.368;12.364;2023-01-28T03:59:49;3.77;;;2.80;;
15258;SDS011;34462;51.368;12.364;2023-01-28T04:02:19;3.80;;;2.40;;
15258;SDS011;34462;51.368;12.364;2023-01-28T04:04:50;4.43;;;3.13;;
15258;SDS011;34462;51.368;12.364;2023-01-28T04:07:18;3.80;;;2.40;;
15258;SDS011;34462;51.368;12.364;2023-01-28T04:09:46;5.53;;;2.60;;
15258;SDS011;34462;51.368;12.364;2023-01-28T04:12:14;3.50;;;2.73;;
15258;SDS011;34462;51.368;12.364;2023-01-28T04:14:43;5.47;;;2.73;;
15258;SDS011;34462;51.368;12.364;2023-01-28T04:17:11;4.33;;;2.60;;
15258;SDS011;34462;51.368;12.364;2023-01-28T04:19:40;5.07;;;2.60;;
15258;SDS011;34462;51.368;12.364;2023-01-28T04:22:10;5.03;;;2.50;;
15258;SDS011;34462;51.368;12.364;2023-01-28T04:24:38;3.50;;;2.67;;
15258;SDS011;34462;51.368;12.364;2023-01-28T04:27:07;5.50;;;2.60;;
15258;SDS011;34462;51.368;12.364;2023-01-28T04:29:35;6.07;;;2.93;;
15258;SDS011;34462;51.368;12.364;2023-01-28T04:32:03;3.40;;;2.70;;
15258;SDS011;34462;51.368;12.364;2023-01-28T04:34:31;3.70;;;2.60;;
15258;SDS011;34462;51.368;12.364;2023-01-28T04:36:59;3.73;;;2.40;;
15258;SDS011;34462;51.368;12.364;2023-01-28T04:39:29;5.03;;;2.70;;
15258;SDS011;34462;51.368;12.364;2023-01-28T04:41:57;4.53;;;2.60;;
15258;SDS011;34462;51.368;12.364;2023-01-28T04:44:25;3.80;;;2.80;;
15258;SDS011;34462;51.368;12.364;2023-01-28T04:46:53;7.43;;;2.80;;
15258;SDS011;34462;51.368;12.364;2023-01-28T04:49:22;5.47;;;2.60;;
15258;SDS011;34462;51.368;12.364;2023-01-28T04:51:50;3.97;;;2.70;;
15258;SDS011;34462;51.368;12.364;2023-01-28T04:54:18;4.20;;;2.50;;
15258;SDS011;34462;51.368;12.364;2023-01-28T04:56:48;4.63;;;2.60;;
15258;SDS011;34462;51.368;12.364;2023-01-28T04:59:16;3.20;;;2.30;;
15258;SDS011;34462;51.368;12.364;2023-01-28T05:01:45;3.73;;;2.53;;
15258;SDS011;34462;51.368;12.364;2023-01-28T05:04:13;3.60;;;2.67;;
15258;SDS011;34462;51.368;12.364;2023-01-28T05:06:42;3.47;;;2.47;;
15258;SDS011;34462;51.368;12.364;2023-01-28T05:09:10;4.30;;;3.17;;
15258;SDS011;34462;51.368;12.364;2023-01-28T05:11:38;7.03;;;3.30;;
15258;SDS011;34462;51.368;12.364;2023-01-28T05:14:08;6.00;;;2.57;;
15258;SDS011;34462;51.368;12.364;2023-01-28T05:16:36;3.90;;;2.80;;
15258;SDS011;34462;51.368;12.364;2023-01-28T05:19:04;4.90;;;2.90;;
15258;SDS011;34462;51.368;12.364;2023-01-28T05:21:32;4.40;;;2.70;;
15258;SDS011;34462;51.368;12.364;2023-01-28T05:24:01;3.87;;;3.00;;
15258;SDS011;34462;51.368;12.364;2023-01-28T05:26:29;4.53;;;2.50;;
15258;SDS011;34462;51.368;12.364;2023-01-28T05:28:57;3.57;;;2.80;;
15258;SDS011;34462;51.368;12.364;2023-01-28T05:31:27;4.47;;;3.07;;
15258;SDS011;34462;51.368;12.364;2023-01-28T05:33:55;5.03;;;2.77;;
15258;SDS011;34462;51.368;12.364;2023-01-28T05:36:23;3.93;;;2.90;;
15258;SDS011;34462;51.368;12.364;2023-01-28T05:38:52;6.47;;;2.90;;
15258;SDS011;34462;51.368;12.364;2023-01-28T05:41:20;6.23;;;3.10;;
15258;SDS011;34462;51.368;12.364;2023-01-28T05:43:48;4.37;;;3.20;;
15258;SDS011;34462;51.368;12.364;2023-01-28T05:46:16;5.57;;;2.73;;
15258;SDS011;34462;51.368;12.364;2023-01-28T05:48:46;4.17;;;3.20;;
15258;SDS011;34462;51.368;12.364;2023-01-28T05:51:16;2.97;;;2.67;;
15258;SDS011;34462;51.368;12.364;2023-01-28T05:53:44;3.30;;;2.90;;
15258;SDS011;34462;51.368;12.364;2023-01-28T05:56:12;3.73;;;2.47;;
15258;SDS011;34462;51.368;12.364;2023-01-28T05:58:41;4.67;;;2.80;;
15258;SDS011;34462;51.368;12.364;2023-01-28T06:01:09;4.33;;;3.20;;
15258;SDS011;34462;51.368;12.364;2023-01-28T06:03:37;4.33;;;2.80;;
15258;SDS011;34462;51.368;12.364;2023-01-28T06:06:06;5.10;;;3.17;;
15258;SDS011;34462;51.368;12.364;2023-01-28T06:08:35;4.53;;;2.50;;
15258;SDS011;34462;51.368;12.364;2023-01-28T06:11:03;5.57;;;2.90;;
15258;SDS011;34462;51.368;12.364;2023-01-28T06:13:32;4.70;;;3.10;;
15258;SDS011;34462;51.368;12.364;2023-01-28T06:16:00;5.33;;;3.10;;
15258;SDS011;34462;51.368;12.364;2023-01-28T06:18:30;7.77;;;5.03;;
15258;SDS011;34462;51.368;12.364;2023-01-28T06:20:58;4.37;;;2.80;;
15258;SDS011;34462;51.368;12.364;2023-01-28T06:23:28;5.67;;;2.93;;
15258;SDS011;34462;51.368;12.364;2023-01-28T06:25:56;5.50;;;3.03;;
15258;SDS011;34462;51.368;12.364;2023-01-28T06:28:24;4.20;;;2.73;;
15258;SDS011;34462;51.368;12.364;2023-01-28T06:30:52;6.03;;;3.00;;
15258;SDS011;34462;51.368;12.364;2023-01-28T06:33:21;4.90;;;2.80;;
15258;SDS011;34462;51.368;12.364;2023-01-28T06:35:49;5.33;;;3.20;;
15258;SDS011;34462;51.368;12.364;2023-01-28T06:38:17;6.57;;;2.90;;
15258;SDS011;34462;51.368;12.364;2023-01-28T06:40:50;4.80;;;3.03;;
15258;SDS011;34462;51.368;12.364;2023-01-28T06:43:20;3.37;;;2.80;;
15258;SDS011;34462;51.368;12.364;2023-01-28T06:45:52;3.87;;;3.07;;
15258;SDS011;34462;51.368;12.364;2023-01-28T06:48:21;5.37;;;3.23;;
15258;SDS011;34462;51.368;12.364;2023-01-28T06:50:49;6.27;;;2.93;;
15258;SDS011;34462;51.368;12.364;2023-01-28T06:53:18;4.37;;;2.90;;
15258;SDS011;34462;51.368;12.364;2023-01-28T06:55:47;5.47;;;2.77;;
15258;SDS011;34462;51.368;12.364;2023-01-28T06:58:17;5.67;;;2.80;;
15258;SDS011;34462;51.368;12.364;2023-01-28T07:00:45;5.53;;;3.10;;
15258;SDS011;34462;51.368;12.364;2023-01-28T07:03:13;5.53;;;3.87;;
15258;SDS011;34462;51.368;12.364;2023-01-28T07:05:41;5.33;;;2.97;;
15258;SDS011;34462;51.368;12.364;2023-01-28T07:08:09;4.30;;;3.23;;
15258;SDS011;34462;51.368;12.364;2023-01-28T07:10:38;4.63;;;2.67;;
15258;SDS011;34462;51.368;12.364;2023-01-28T07:13:06;4.10;;;2.53;;
15258;SDS011;34462;51.368;12.364;2023-01-28T07:15:35;2.73;;;2.47;;
15258;SDS011;34462;51.368;12.364;2023-01-28T07:18:03;3.40;;;2.50;;
15258;SDS011;34462;51.368;12.364;2023-01-28T07:20:32;3.30;;;2.43;;
15258;SDS011;34462;51.368;12.364;2023-01-28T07:23:00;3.37;;;1.87;;
15258;SDS011;34462;51.368;12.364;2023-01-28T07:25:28;2.10;;;1.90;;
15258;SDS011;34462;51.368;12.364;2023-01-28T07:27:56;4.57;;;2.37;;
15258;SDS011;34462;51.368;12.364;2023-01-28T07:30:25;4.27;;;2.70;;
15258;SDS011;34462;51.368;12.364;2023-01-28T07:32:54;5.63;;;3.07;;
15258;SDS011;34462;51.368;12.364;2023-01-28T07:35:26;3.57;;;2.00;;
15258;SDS011;34462;51.368;12.364;2023-01-28T07:37:55;3.17;;;1.80;;
15258;SDS011;34462;51.368;12.364;2023-01-28T07:40:26;2.00;;;1.40;;
15258;SDS011;34462;51.368;12.364;2023-01-28T07:42:55;3.17;;;1.60;;
15258;SDS011;34462;51.368;12.364;2023-01-28T07:45:24;2.30;;;1.60;;
15258;SDS011;34462;51.368;12.364;2023-01-28T07:47:55;2.40;;;1.70;;
15258;SDS011;34462;51.368;12.364;2023-01-28T07:50:25;1.83;;;1.60;;
15258;SDS011;34462;51.368;12.364;2023-01-28T07:52:55;3.93;;;1.80;;
15258;SDS011;34462;51.368;12.364;2023-01-28T07:55:24;5.20;;;1.67;;
15258;SDS011;34462;51.368;12.364;2023-01-28T07:57:57;2.43;;;1.60;;
15258;SDS011;34462;51.368;12.364;2023-01-28T08:00:27;2.53;;;1.73;;
15258;SDS011;34462;51.368;12.364;2023-01-28T08:02:59;1.80;;;1.57;;
15258;SDS011;34462;51.368;12.364;2023-01-28T08:05:32;1.90;;;1.70;;
15258;SDS011;34462;51.368;12.364;2023-01-28T08:08:08;2.53;;;1.70;;
15258;SDS011;34462;51.368;12.364;2023-01-28T08:10:37;2.73;;;1.50;;
15258;SDS011;34462;51.368;12.364;2023-01-28T08:13:06;2.30;;;1.70;;
15258;SDS011;34462;51.368;12.364;2023-01-28T08:15:37;4.13;;;1.70;;
15258;SDS011;34462;51.368;12.364;2023-01-28T08:18:07;2.33;;;1.60;;
15258;SDS011;34462;51.368;12.364;2023-01-28T08:20:38;3.30;;;2.20;;
15258;SDS011;34462;51.368;12.364;2023-01-28T08:23:10;3.60;;;2.23;;
15258;SDS011;34462;51.368;12.364;2023-01-28T08:25:40;3.67;;;2.27;;
15258;SDS011;34462;51.368;12.364;2023-01-28T08:28:09;4.60;;;2.67;;
15258;SDS011;34462;51.368;12.364;2023-01-28T08:30:39;3.20;;;2.70;;
15258;SDS011;34462;51.368;12.364;2023-01-28T08:33:10;4.97;;;2.53;;
15258;SDS011;34462;51.368;12.364;2023-01-28T08:35:40;4.97;;;3.27;;
15258;SDS011;34462;51.368;12.364;2023-01-28T08:38:09;4.00;;;2.90;;
15258;SDS011;34462;51.368;12.364;2023-01-28T08:40:40;5.30;;;3.40;;
15258;SDS011;34462;51.368;12.364;2023-01-28T08:43:08;4.37;;;3.17;;
15258;SDS011;34462;51.368;12.364;2023-01-28T08:45:36;4.90;;;3.60;;
15258;SDS011;34462;51.368;12.364;2023-01-28T08:48:07;5.17;;;3.57;;
15258;SDS011;34462;51.368;12.364;2023-01-28T08:50:42;4.80;;;3.13;;
15258;SDS011;34462;51.368;12.364;2023-01-28T08:53:12;3.90;;;3.10;;
15258;SDS011;34462;51.368;12.364;2023-01-28T08:55:42;2.77;;;2.37;;
15258;SDS011;34462;51.368;12.364;2023-01-28T08:58:11;4.50;;;3.03;;
15258;SDS011;34462;51.368;12.364;2023-01-28T09:00:42;5.53;;;3.30;;
15258;SDS011;34462;51.368;12.364;2023-01-28T09:03:13;6.23;;;2.57;;
15258;SDS011;34462;51.368;12.364;2023-01-28T09:05:42;3.97;;;2.73;;
15258;SDS011;34462;51.368;12.364;2023-01-28T09:08:11;4.50;;;2.63;;
15258;SDS011;34462;51.368;12.364;2023-01-28T09:10:41;2.60;;;2.30;;
15258;SDS011;34462;51.368;12.364;2023-01-28T09:13:10;4.63;;;2.77;;
15258;SDS011;34462;51.368;12.364;2023-01-28T09:15:41;5.73;;;2.50;;
15258;SDS011;34462;51.368;12.364;2023-01-28T09:18:09;2.77;;;2.30;;
15258;SDS011;34462;51.368;12.364;2023-01-28T09:20:39;3.53;;;2.40;;
15258;SDS011;34462;51.368;12.364;2023-01-28T09:23:07;3.47;;;2.13;;
15258;SDS011;34462;51.368;12.364;2023-01-28T09:25:36;2.73;;;2.20;;
15258;SDS011;34462;51.368;12.364;2023-01-28T09:28:05;2.37;;;2.00;;
15258;SDS011;34462;51.368;12.364;2023-01-28T09:30:34;2.90;;;2.07;;
15258;SDS011;34462;51.368;12.364;2023-01-28T09:33:03;2.87;;;2.00;;
15258;SDS011;34462;51.368;12.364;2023-01-28T09:35:33;1.67;;;1.50;;
15258;SDS011;34462;51.368;12.364;2023-01-28T09:38:03;5.50;;;2.47;;
15258;SDS011;34462;51.368;12.364;2023-01-28T09:40:33;2.57;;;1.93;;
15258;SDS011;34462;51.368;12.364;2023-01-28T09:43:12;3.10;;;1.80;;
15258;SDS011;34462;51.368;12.364;2023-01-28T09:45:59;2.43;;;1.80;;
15258;SDS011;34462;51.368;12.364;2023-01-28T09:48:33;2.83;;;1.80;;
15258;SDS011;34462;51.368;12.364;2023-01-28T09:51:07;4.13;;;1.80;;
15258;SDS011;34462;51.368;12.364;2023-01-28T09:53:46;2.83;;;2.07;;
15258;SDS011;34462;51.368;12.364;2023-01-28T09:56:21;1.87;;;1.67;;
15258;SDS011;34462;51.368;12.364;2023-01-28T09:58:55;3.63;;;2.50;;
15258;SDS011;34462;51.368;12.364;2023-01-28T10:01:32;3.63;;;2.10;;
15258;SDS011;34462;51.368;12.364;2023-01-28T10:04:14;3.47;;;2.00;;
15258;SDS011;34462;51.368;12.364;2023-01-28T10:07:00;3.83;;;2.80;;
15258;SDS011;34462;51.368;12.364;2023-01-28T10:09:44;5.50;;;2.63;;
15258;SDS011;34462;51.368;12.364;2023-01-28T10:12:31;3.07;;;2.30;;
15258;SDS011;34462;51.368;12.364;2023-01-28T10:18:36;5.80;;;3.43;;
15258;SDS011;34462;51.368;12.364;2023-01-28T10:21:12;7.33;;;3.77;;
15258;SDS011;34462;51.368;12.364;2023-01-28T10:23:50;6.53;;;3.53;;
15258;SDS011;34462;51.368;12.364;2023-01-28T10:26:32;6.17;;;3.97;;
15258;SDS011;34462;51.368;12.364;2023-01-28T10:29:05;8.20;;;4.07;;
15258;SDS011;34462;51.368;12.364;2023-01-28T10:31:46;7.27;;;4.47;;
15258;SDS011;34462;51.368;12.364;2023-01-28T10:34:20;8.57;;;4.40;;
15258;SDS011;34462;51.368;12.364;2023-01-28T10:36:49;5.23;;;3.80;;
15258;SDS011;34462;51.368;12.364;2023-01-28T10:39:19;5.63;;;3.60;;
15258;SDS011;34462;51.368;12.364;2023-01-28T10:41:51;5.60;;;3.70;;
15258;SDS011;34462;51.368;12.364;2023-01-28T10:44:27;6.30;;;3.70;;
15258;SDS011;34462;51.368;12.364;2023-01-28T10:47:03;7.13;;;4.23;;
15258;SDS011;34462;51.368;12.364;2023-01-28T10:49:41;6.97;;;4.13;;
15258;SDS011;34462;51.368;12.364;2023-01-28T10:52:15;6.67;;;3.93;;
15258;SDS011;34462;51.368;12.364;2023-01-28T10:54:44;6.83;;;4.13;;
15258;SDS011;34462;51.368;12.364;2023-01-28T10:57:15;7.23;;;3.80;;
15258;SDS011;34462;51.368;12.364;2023-01-28T10:59:45;6.50;;;4.53;;
15258;SDS011;34462;51.368;12.364;2023-01-28T11:02:20;7.90;;;4.20;;
15258;SDS011;34462;51.368;12.364;2023-01-28T11:04:59;6.77;;;3.63;;
15258;SDS011;34462;51.368;12.364;2023-01-28T11:07:31;6.50;;;3.80;;
15258;SDS011;34462;51.368;12.364;2023-01-28T11:10:00;4.30;;;3.50;;
15258;SDS011;34462;51.368;12.364;2023-01-28T11:12:29;6.20;;;3.30;;
15258;SDS011;34462;51.368;12.364;2023-01-28T11:14:59;5.13;;;3.93;;
15258;SDS011;34462;51.368;12.364;2023-01-28T11:17:30;6.80;;;3.87;;
15258;SDS011;34462;51.368;12.364;2023-01-28T11:20:08;5.90;;;3.90;;
15258;SDS011;34462;51.368;12.364;2023-01-28T11:22:40;6.57;;;4.07;;
15258;SDS011;34462;51.368;12.364;2023-01-28T11:25:14;4.93;;;3.90;;
15258;SDS011;34462;51.368;12.364;2023-01-28T11:27:50;6.70;;;4.27;;
15258;SDS011;34462;51.368;12.364;2023-01-28T11:30:21;4.93;;;3.77;;
15258;SDS011;34462;51.368;12.364;2023-01-28T11:32:56;4.17;;;3.43;;
15258;SDS011;34462;51.368;12.364;2023-01-28T11:35:31;4.47;;;3.20;;
15258;SDS011;34462;51.368;12.364;2023-01-28T11:37:59;6.63;;;3.63;;
15258;SDS011;34462;51.368;12.364;2023-01-28T11:40:28;5.27;;;3.30;;
15258;SDS011;34462;51.368;12.364;2023-01-28T11:42:57;4.97;;;3.30;;
15258;SDS011;34462;51.368;12.364;2023-01-28T11:45:28;5.60;;;3.30;;
15258;SDS011;34462;51.368;12.364;2023-01-28T11:48:17;4.53;;;2.63;;
15258;SDS011;34462;51.368;12.364;2023-01-28T11:51:02;7.27;;;2.97;;
15258;SDS011;34462;51.368;12.364;2023-01-28T11:53:48;5.80;;;2.90;;
15258;SDS011;34462;51.368;12.364;2023-01-28T11:56:39;5.37;;;3.10;;
15258;SDS011;34462;51.368;12.364;2023-01-28T11:59:30;5.77;;;3.03;;
15258;SDS011;34462;51.368;12.364;2023-01-28T12:02:19;6.43;;;3.50;;
15258;SDS011;34462;51.368;12.364;2023-01-28T12:05:11;4.60;;;3.27;;
15258;SDS011;34462;51.368;12.364;2023-01-28T12:08:02;7.97;;;4.07;;
15258;SDS011;34462;51.368;12.364;2023-01-28T12:10:40;6.73;;;4.20;;
15258;SDS011;34462;51.368;12.364;2023-01-28T12:13:27;7.50;;;4.47;;
15258;SDS011;34462;51.368;12.364;2023-01-28T12:16:20;7.07;;;3.90;;
15258;SDS011;34462;51.368;12.364;2023-01-28T12:19:13;6.83;;;4.53;;
15258;SDS011;34462;51.368;12.364;2023-01-28T12:22:13;6.07;;;4.17;;
15258;SDS011;34462;51.368;12.364;2023-01-28T12:25:00;7.40;;;4.83;;
15258;SDS011;34462;51.368;12.364;2023-01-28T12:27:56;6.70;;;4.87;;
15258;SDS011;34462;51.368;12.364;2023-01-28T12:30:45;8.83;;;4.80;;
15258;SDS011;34462;51.368;12.364;2023-01-28T12:33:40;8.30;;;4.77;;
15258;SDS011;34462;51.368;12.364;2023-01-28T12:36:42;6.93;;;4.70;;
15258;SDS011;34462;51.368;12.364;2023-01-28T12:39:26;8.10;;;4.73;;
15258;SDS011;34462;51.368;12.364;2023-01-28T12:42:12;6.80;;;4.50;;
15258;SDS011;34462;51.368;12.364;2023-01-28T12:44:50;5.80;;;4.53;;
15258;SDS011;34462;51.368;12.364;2023-01-28T12:47:26;7.43;;;4.23;;
15258;SDS011;34462;51.368;12.364;2023-01-28T12:50:09;6.07;;;4.07;;
15258;SDS011;34462;51.368;12.364;2023-01-28T12:52:45;4.53;;;3.63;;
15258;SDS011;34462;51.368;12.364;2023-01-28T12:55:19;5.07;;;3.93;;
15258;SDS011;34462;51.368;12.364;2023-01-28T12:58:04;4.93;;;4.17;;
15258;SDS011;34462;51.368;12.364;2023-01-28T13:00:39;6.27;;;3.97;;
15258;SDS011;34462;51.368;12.364;2023-01-28T13:03:16;6.43;;;4.40;;
15258;SDS011;34462;51.368;12.364;2023-01-28T13:05:54;4.43;;;3.50;;
15258;SDS011;34462;51.368;12.364;2023-01-28T13:08:28;4.30;;;3.70;;
15258;SDS011;34462;51.368;12.364;2023-01-28T13:10:57;6.27;;;4.47;;
15258;SDS011;34462;51.368;12.364;2023-01-28T13:13:29;4.17;;;3.50;;
15258;SDS011;34462;51.368;12.364;2023-01-28T13:16:00;3.60;;;3.30;;
15258;SDS011;34462;51.368;12.364;2023-01-28T13:18:31;4.87;;;3.80;;
15258;SDS011;34462;51.368;12.364;2023-01-28T13:21:16;4.13;;;3.73;;
15258;SDS011;34462;51.368;12.364;2023-01-28T13:24:21;5.63;;;3.93;;
15258;SDS011;34462;51.368;12.364;2023-01-28T13:27:08;5.63;;;4.80;;
15258;SDS011;34462;51.368;12.364;2023-01-28T13:29:39;5.47;;;4.13;;
15258;SDS011;34462;51.368;12.364;2023-01-28T13:34:59;6.10;;;5.33;;
15258;SDS011;34462;51.368;12.364;2023-01-28T13:37:35;5.00;;;4.10;;
15258;SDS011;34462;51.368;12.364;2023-01-28T13:40:07;5.60;;;4.40;;
15258;SDS011;34462;51.368;12.364;2023-01-28T13:42:57;6.47;;;4.70;;
15258;SDS011;34462;51.368;12.364;2023-01-28T13:45:29;6.33;;;5.07;;
15258;SDS011;34462;51.368;12.364;2023-01-28T13:48:00;5.83;;;4.83;;
15258;SDS011;34462;51.368;12.364;2023-01-28T13:50:47;5.83;;;4.80;;
15258;SDS011;34462;51.368;12.364;2023-01-28T13:53:23;7.87;;;5.00;;
15258;SDS011;34462;51.368;12.364;2023-01-28T13:56:03;6.33;;;5.10;;
15258;SDS011;34462;51.368;12.364;2023-01-28T13:59:03;5.97;;;5.10;;
15258;SDS011;34462;51.368;12.364;2023-01-28T14:02:01;6.43;;;4.90;;
15258;SDS011;34462;51.368;12.364;2023-01-28T14:12:11;5.47;;;4.80;;
15258;SDS011;34462;51.368;12.364;2023-01-28T14:15:11;5.17;;;4.57;;
15258;SDS011;34462;51.368;12.364;2023-01-28T14:17:59;4.80;;;4.03;;
15258;SDS011;34462;51.368;12.364;2023-01-28T14:20:29;4.93;;;4.40;;
15258;SDS011;34462;51.368;12.364;2023-01-28T14:23:12;6.60;;;4.47;;
15258;SDS011;34462;51.368;12.364;2023-01-28T14:25:57;6.83;;;4.43;;
15258;SDS011;34462;51.368;12.364;2023-01-28T14:28:45;4.00;;;3.60;;
15258;SDS011;34462;51.368;12.364;2023-01-28T14:31:30;5.77;;;3.93;;
15258;SDS011;34462;51.368;12.364;2023-01-28T14:34:03;5.73;;;5.13;;
15258;SDS011;34462;51.368;12.364;2023-01-28T14:36:41;6.70;;;4.73;;
15258;SDS011;34462;51.368;12.364;2023-01-28T14:39:14;5.87;;;4.93;;
15258;SDS011;34462;51.368;12.364;2023-01-28T14:41:46;6.60;;;5.10;;
15258;SDS011;34462;51.368;12.364;2023-01-28T14:44:23;7.37;;;5.83;;
15258;SDS011;34462;51.368;12.364;2023-01-28T14:47:02;5.67;;;5.00;;
15258;SDS011;34462;51.368;12.364;2023-01-28T14:50:08;6.23;;;5.10;;
15258;SDS011;34462;51.368;12.364;2023-01-28T14:52:58;7.30;;;5.43;;
15258;SDS011;34462;51.368;12.364;2023-01-28T14:56:03;6.70;;;4.77;;
15258;SDS011;34462;51.368;12.364;2023-01-28T14:58:45;6.33;;;4.70;;
15258;SDS011;34462;51.368;12.364;2023-01-28T15:01:21;7.13;;;5.43;;
15258;SDS011;34462;51.368;12.364;2023-01-28T15:03:51;6.27;;;4.60;;
15258;SDS011;34462;51.368;12.364;2023-01-28T15:06:21;6.30;;;4.50;;
15258;SDS011;34462;51.368;12.364;2023-01-28T15:08:51;5.37;;;4.73;;
15258;SDS011;34462;51.368;12.364;2023-01-28T15:11:20;7.00;;;4.33;;
15258;SDS011;34462;51.368;12.364;2023-01-28T15:13:53;6.13;;;4.80;;
15258;SDS011;34462;51.368;12.364;2023-01-28T15:16:26;6.53;;;4.90;;
15258;SDS011;34462;51.368;12.364;2023-01-28T15:18:58;6.20;;;4.27;;
15258;SDS011;34462;51.368;12.364;2023-01-28T15:21:28;5.10;;;4.23;;
15258;SDS011;34462;51.368;12.364;2023-01-28T15:23:57;5.63;;;4.27;;
15258;SDS011;34462;51.368;12.364;2023-01-28T15:26:29;6.47;;;4.50;;
15258;SDS011;34462;51.368;12.364;2023-01-28T15:29:00;5.20;;;3.90;;
15258;SDS011;34462;51.368;12.364;2023-01-28T15:31:30;4.80;;;3.83;;